Terminal Aerodrome Forecast
Issued by NWS

Home | Current Version | Previous Version | Text Only | Print | Product List | Glossary On
Versions: 1 2 3 4 5 6 7 8 9 10 11 12
000
FTUS45 KFGZ 061133
TAFPRC
TAF
KPRC 061133Z 0612/0712 12010KT P6SM SCT070 BKN200
     FM061500 15015G25KT P6SM BKN150
     FM061900 20014G24KT P6SM SCT050 BKN080
      TEMPO 0620/0624 5SM -TSRA BKN050CB
     FM070000 20008KT 5SM -SHRA BKN030 OVC050=

USA.gov is the U.S. government's official web portal to all federal, state and local government web resources and services.